Time;durP1;ratioP1;P1;durP2;ratioP2;P2;SDS_P1;SDS_P2;PMS_P1;PMS_P2;Temp;Humidity;BMP_temperature;BMP_pressure;BME280_temperature;BME280_humidity;BME280_pressure;Samples;Min_cycle;Max_cycle;Signal;HPM_P1;HPM_P2
2023/05/15 00:01:48;;;;;;;;;;;;;;;14.03;63.01;100792.81;4073458;29;20544;-66
2023/05/15 00:03:50;;;;;;;;;;;;;;;14.04;62.77;100786.31;4073547;29;20380;-67
2023/05/15 00:05:52;;;;;;;;;;;;;;;14.03;62.73;100784.66;4074065;29;20018;-67
2023/05/15 00:07:54;;;;;;;;;;;;;;;14.00;62.68;100780.47;4073960;29;20029;-67
2023/05/15 00:09:58;;;;;;;;;;;;;;;13.92;62.99;100772.47;4073353;29;20018;-67
2023/05/15 00:12:00;;;;;;;;;;;;;;;13.84;63.36;100761.75;4071996;29;20029;-67
2023/05/15 00:14:02;;;;;;;;;;;;;;;13.78;64.13;100760.69;4073620;29;20017;-67
2023/05/15 00:16:11;;;;;;;;;;;;;;;13.73;64.19;100757.72;4073278;29;20030;-66
2023/05/15 00:18:13;;;;;;;;;;;;;;;13.72;64.17;100761.47;4073703;29;20456;-67
2023/05/15 00:20:15;;;;;;;;;;;;;;;13.71;64.13;100754.34;4073308;29;20373;-66
2023/05/15 00:22:17;;;;;;;;;;;;;;;13.71;63.63;100748.91;4073535;29;20009;-66
2023/05/15 00:24:19;;;;;;;;;;;;;;;13.70;64.11;100750.81;4073303;29;20029;-66
2023/05/15 00:26:23;;;;;;;;;;;;;;;13.66;64.34;100746.78;4072858;29;20035;-66
2023/05/15 00:28:25;;;;;;;;;;;;;;;13.64;64.27;100751.59;4075133;29;20362;-66
2023/05/15 00:30:26;;;;;;;;;;;;;;;13.61;64.38;100745.72;4073453;29;20025;-66
2023/05/15 00:32:30;;;;;;;;;;;;;;;13.61;64.39;100745.72;4073748;29;20010;-66
2023/05/15 00:34:32;;;;;;;;;;;;;;;13.59;64.17;100743.22;4074199;29;20367;-67
2023/05/15 00:36:34;;;;;;;;;;;;;;;13.61;63.92;100738.41;4073557;29;20017;-66
2023/05/15 00:38:36;;;;;;;;;;;;;;;13.64;63.02;100743.44;4073837;29;20022;-66
2023/05/15 00:40:38;;;;;;;;;;;;;;;13.64;63.14;100731.78;4073706;29;20368;-67
2023/05/15 00:42:40;;;;;;;;;;;;;;;13.61;63.13;100730.28;4073923;29;20017;-66
2023/05/15 00:44:42;;;;;;;;;;;;;;;13.58;63.44;100727.13;4073106;29;20013;-66
2023/05/15 00:46:45;;;;;;;;;;;;;;;13.51;63.75;100735.19;4073837;29;20386;-67
2023/05/15 00:48:49;;;;;;;;;;;;;;;13.43;63.71;100730.78;4073141;29;20450;-67
2023/05/15 00:50:53;;;;;;;;;;;;;;;13.31;63.56;100748.59;4073441;29;20017;-66
2023/05/15 00:52:55;;;;;;;;;;;;;;;13.26;63.99;100735.59;4073301;29;20025;-67
2023/05/15 00:54:57;;;;;;;;;;;;;;;13.37;63.45;100742.41;4072009;29;20061;-66
2023/05/15 00:57:00;;;;;;;;;;;;;;;13.33;63.80;100738.41;4072375;29;20025;-66
2023/05/15 00:59:02;;;;;;;;;;;;;;;13.24;63.90;100728.69;4072073;29;20005;-66
2023/05/15 01:01:05;;;;;;;;;;;;;;;13.16;64.31;100718.81;4073952;29;20018;-66
2023/05/15 01:03:07;;;;;;;;;;;;;;;13.14;64.14;100729.03;4070836;29;20025;-66
2023/05/15 01:05:10;;;;;;;;;;;;;;;13.07;64.59;100728.09;4073519;29;20021;-66
2023/05/15 01:07:12;;;;;;;;;;;;;;;13.01;64.63;100718.03;4073915;29;20017;-66
2023/05/15 01:09:15;;;;;;;;;;;;;;;13.02;64.92;100717.00;4087805;28;19927;-66
2023/05/15 01:11:17;;;;;;;;;;;;;;;12.96;64.84;100718.63;4075708;29;20002;-66
2023/05/15 01:13:21;;;;;;;;;;;;;;;12.91;64.98;100711.06;4074407;29;20018;-67
2023/05/15 01:15:23;;;;;;;;;;;;;;;12.91;64.87;100710.22;4075445;29;20446;-66
2023/05/15 01:17:25;;;;;;;;;;;;;;;13.02;64.76;100720.56;4075460;29;20037;-65
2023/05/15 01:19:28;;;;;;;;;;;;;;;13.01;64.67;100718.03;4076008;29;20370;-67
2023/05/15 01:21:48;;;;;;;;;;;;;;;12.93;64.84;100719.00;4075230;29;20038;-66
2023/05/15 01:23:56;;;;;;;;;;;;;;;12.84;65.11;100725.59;4074448;29;20105;-66
2023/05/15 01:26:07;;;;;;;;;;;;;;;12.80;65.37;100714.28;4075904;29;20037;-66
2023/05/15 01:28:11;;;;;;;;;;;;;;;12.78;65.76;100709.06;4076071;29;20029;-66
2023/05/15 01:30:15;;;;;;;;;;;;;;;12.75;65.76;100709.44;4076532;29;20413;-66
2023/05/15 01:32:24;;;;;;;;;;;;;;;12.80;65.67;100709.72;4089033;29;20010;-66
2023/05/15 01:34:29;;;;;;;;;;;;;;;12.89;65.59;100706.88;4076473;29;20430;-66
2023/05/15 01:36:34;;;;;;;;;;;;;;;12.91;65.27;100704.81;4076417;29;20025;-66
2023/05/15 01:38:38;;;;;;;;;;;;;;;12.92;65.36;100704.63;4074901;29;20030;-66
2023/05/15 01:40:41;;;;;;;;;;;;;;;12.91;65.06;100707.53;4075934;29;20014;-66
2023/05/15 01:42:49;;;;;;;;;;;;;;;12.88;65.20;100711.44;4074189;29;20110;-67
2023/05/15 01:44:53;;;;;;;;;;;;;;;12.85;65.69;100706.41;4076299;29;20045;-66
2023/05/15 01:46:56;;;;;;;;;;;;;;;12.77;65.99;100709.25;4075549;29;20024;-66
2023/05/15 01:48:58;;;;;;;;;;;;;;;12.73;66.07;100702.56;4082062;29;20021;-66
2023/05/15 01:51:02;;;;;;;;;;;;;;;12.68;66.40;100696.84;4082164;29;20441;-67
2023/05/15 01:53:04;;;;;;;;;;;;;;;12.66;66.54;100694.31;4075708;29;20026;-67
2023/05/15 01:55:06;;;;;;;;;;;;;;;12.64;66.59;100690.97;4074670;29;20066;-65
2023/05/15 01:57:09;;;;;;;;;;;;;;;12.63;66.72;100683.88;4074846;29;20026;-65
2023/05/15 01:59:11;;;;;;;;;;;;;;;12.66;66.26;100686.19;4074733;29;20027;-65
2023/05/15 02:01:14;;;;;;;;;;;;;;;12.65;66.23;100672.84;4073930;29;20034;-65
2023/05/15 02:03:16;;;;;;;;;;;;;;;12.64;66.68;100671.19;4075121;29;20486;-65
2023/05/15 02:05:19;;;;;;;;;;;;;;;12.61;66.40;100672.41;4090066;29;20057;-67
2023/05/15 02:07:22;;;;;;;;;;;;;;;12.58;66.48;100667.38;4089664;29;20022;-67
2023/05/15 02:09:25;;;;;;;;;;;;;;;12.53;67.04;100677.94;4075025;29;20014;-67
2023/05/15 02:11:27;;;;;;;;;;;;;;;12.57;67.01;100665.69;4074494;29;20571;-67
2023/05/15 02:13:29;;;;;;;;;;;;;;;12.66;66.05;100669.94;4073111;29;20017;-67
2023/05/15 02:15:31;;;;;;;;;;;;;;;12.81;64.96;100669.91;4075556;29;20029;-67
2023/05/15 02:17:34;;;;;;;;;;;;;;;12.95;64.72;100668.97;4081298;29;20022;-66
2023/05/15 02:19:37;;;;;;;;;;;;;;;13.07;64.19;100663.91;4075070;29;20026;-66
2023/05/15 02:21:39;;;;;;;;;;;;;;;13.21;63.51;100662.09;4074524;29;20029;-66
2023/05/15 02:23:41;;;;;;;;;;;;;;;13.19;63.69;100663.34;4074945;29;20010;-66
2023/05/15 02:25:44;;;;;;;;;;;;;;;13.04;64.68;100663.41;4074914;29;20480;-67
2023/05/15 02:27:47;;;;;;;;;;;;;;;12.89;65.16;100666.22;4075350;29;20053;-66
2023/05/15 02:29:52;;;;;;;;;;;;;;;12.79;65.34;100658.41;4076114;29;20026;-66
2023/05/15 02:31:57;;;;;;;;;;;;;;;12.71;66.14;100661.25;4074490;29;20658;-66
2023/05/15 02:34:02;;;;;;;;;;;;;;;12.60;66.17;100658.03;4074108;29;20366;-66
2023/05/15 02:36:05;;;;;;;;;;;;;;;12.49;66.66;100653.13;4075585;29;19931;-66
2023/05/15 02:38:08;;;;;;;;;;;;;;;12.44;66.85;100661.81;4074510;29;20027;-66
2023/05/15 02:40:11;;;;;;;;;;;;;;;12.38;67.30;100664.44;4075179;29;20051;-67
2023/05/15 02:42:14;;;;;;;;;;;;;;;12.37;67.12;100666.31;4073482;29;20030;-67
2023/05/15 02:44:16;;;;;;;;;;;;;;;12.43;67.61;100664.72;4075187;29;20029;-66
2023/05/15 02:46:18;;;;;;;;;;;;;;;12.57;66.51;100663.81;4074300;29;20021;-67
2023/05/15 02:48:20;;;;;;;;;;;;;;;12.69;66.07;100658.72;4075046;29;20030;-66
2023/05/15 02:50:24;;;;;;;;;;;;;;;12.67;66.08;100654.53;4074721;29;20474;-66
2023/05/15 02:52:26;;;;;;;;;;;;;;;12.60;66.37;100654.47;4075065;29;19946;-66
2023/05/15 02:54:28;;;;;;;;;;;;;;;12.51;67.22;100647.50;4073502;29;20013;-66
2023/05/15 02:56:30;;;;;;;;;;;;;;;12.45;67.57;100643.69;4074262;29;20014;-66
2023/05/15 02:58:32;;;;;;;;;;;;;;;12.42;67.63;100644.06;4075140;29;20029;-67
2023/05/15 03:00:34;;;;;;;;;;;;;;;12.35;68.06;100644.00;4074565;29;20013;-66
2023/05/15 03:02:36;;;;;;;;;;;;;;;12.30;68.21;100635.59;4074259;29;20017;-66
2023/05/15 03:04:38;;;;;;;;;;;;;;;12.24;68.34;100625.53;4074684;29;20025;-66
2023/05/15 03:06:41;;;;;;;;;;;;;;;12.21;68.68;100628.59;4089165;29;20034;-66
2023/05/15 03:08:43;;;;;;;;;;;;;;;12.10;68.57;100624.56;4072754;29;20026;-66
2023/05/15 03:10:45;;;;;;;;;;;;;;;12.01;68.96;100621.09;4074660;29;20022;-66
2023/05/15 03:12:47;;;;;;;;;;;;;;;12.01;68.87;100620.28;4074077;29;20521;-67
2023/05/15 03:14:49;;;;;;;;;;;;;;;12.05;69.28;100618.84;4074426;29;20027;-67
2023/05/15 03:16:51;;;;;;;;;;;;;;;12.08;69.27;100623.88;4073009;29;20022;-66
2023/05/15 03:18:53;;;;;;;;;;;;;;;12.10;69.29;100607.44;4074208;29;20051;-66
2023/05/15 03:20:55;;;;;;;;;;;;;;;12.10;68.96;100618.28;4072274;29;20042;-66
2023/05/15 03:22:58;;;;;;;;;;;;;;;12.03;69.12;100619.03;4072500;29;20027;-66
2023/05/15 03:25:01;;;;;;;;;;;;;;;11.97;69.21;100614.38;4072506;29;20333;-66
2023/05/15 03:27:04;;;;;;;;;;;;;;;11.91;69.31;100612.38;4088881;29;20017;-66
2023/05/15 03:29:06;;;;;;;;;;;;;;;11.86;69.28;100618.38;4087558;29;20402;-67
2023/05/15 03:31:08;;;;;;;;;;;;;;;11.90;69.36;100614.28;4072871;29;20480;-66
2023/05/15 03:33:10;;;;;;;;;;;;;;;11.89;69.61;100618.00;4073204;29;20380;-66
2023/05/15 03:35:11;;;;;;;;;;;;;;;11.85;69.75;100610.47;4073588;29;20038;-67
2023/05/15 03:37:13;;;;;;;;;;;;;;;11.81;69.77;100611.88;4074431;29;20414;-66
2023/05/15 03:39:17;;;;;;;;;;;;;;;11.80;69.84;100610.16;4074258;29;20014;-67
2023/05/15 03:41:20;;;;;;;;;;;;;;;11.80;70.17;100610.16;4074282;29;20013;-67
2023/05/15 03:43:22;;;;;;;;;;;;;;;11.77;70.40;100608.69;4073564;29;20477;-66
2023/05/15 03:45:24;;;;;;;;;;;;;;;11.75;70.33;100610.75;4073904;29;20045;-66
2023/05/15 03:47:25;;;;;;;;;;;;;;;11.71;69.99;100607.56;4074916;29;20017;-66
2023/05/15 03:49:28;;;;;;;;;;;;;;;11.71;70.02;100609.44;4080545;29;20469;-66
2023/05/15 03:51:30;;;;;;;;;;;;;;;11.68;70.19;100604.41;4074374;29;20025;-66
2023/05/15 03:53:32;;;;;;;;;;;;;;;11.65;70.03;100602.09;4073037;29;20634;-66
2023/05/15 03:55:35;;;;;;;;;;;;;;;11.61;70.49;100598.06;4073321;29;20452;-66
2023/05/15 03:57:37;;;;;;;;;;;;;;;11.58;70.66;100601.97;4088083;29;20419;-66
2023/05/15 03:59:40;;;;;;;;;;;;;;;11.58;70.45;100603.84;4073287;29;20576;-66
2023/05/15 04:01:42;;;;;;;;;;;;;;;11.58;70.45;100606.56;4073237;29;20442;-66
2023/05/15 04:03:44;;;;;;;;;;;;;;;11.65;70.02;100612.91;4073143;29;20030;-66
2023/05/15 04:05:48;;;;;;;;;;;;;;;11.76;70.00;100606.19;4073275;29;20021;-67
2023/05/15 04:07:50;;;;;;;;;;;;;;;11.72;69.95;100601.16;4073738;29;20030;-66
2023/05/15 04:09:52;;;;;;;;;;;;;;;11.71;70.27;100609.44;4073268;29;20018;-66
2023/05/15 04:11:56;;;;;;;;;;;;;;;11.71;70.52;100599.47;4073549;29;20398;-66
2023/05/15 04:13:58;;;;;;;;;;;;;;;11.71;70.21;100594.06;4074125;29;20034;-66
2023/05/15 04:16:00;;;;;;;;;;;;;;;11.73;70.09;100593.88;4072863;29;20026;-66
2023/05/15 04:18:04;;;;;;;;;;;;;;;11.74;70.32;100590.13;4074694;29;20030;-66
2023/05/15 04:20:07;;;;;;;;;;;;;;;11.78;70.18;100585.19;4074157;29;20029;-66
2023/05/15 04:22:09;;;;;;;;;;;;;;;11.76;69.94;100588.06;4073636;29;20030;-66
2023/05/15 04:24:12;;;;;;;;;;;;;;;11.77;69.97;100592.47;4073354;29;20030;-66
2023/05/15 04:26:14;;;;;;;;;;;;;;;11.92;69.64;100599.72;4073831;29;20017;-66
2023/05/15 04:28:18;;;;;;;;;;;;;;;12.03;68.95;100583.84;4072458;29;20325;-66
2023/05/15 04:30:20;;;;;;;;;;;;;;;12.05;69.10;100589.06;4074444;29;20033;-66
2023/05/15 04:32:22;;;;;;;;;;;;;;;12.04;69.41;100585.53;4087630;29;20025;-66
2023/05/15 04:34:25;;;;;;;;;;;;;;;11.96;69.86;100585.66;4074242;29;19930;-66
2023/05/15 04:36:27;;;;;;;;;;;;;;;11.95;70.13;100588.53;4074108;29;20017;-66
2023/05/15 04:38:29;;;;;;;;;;;;;;;11.97;70.69;100591.91;4073953;29;20373;-67
2023/05/15 04:40:31;;;;;;;;;;;;;;;11.98;70.84;100589.00;4073728;29;20014;-66
2023/05/15 04:42:33;;;;;;;;;;;;;;;11.99;70.77;100589.81;4072971;29;20038;-66
2023/05/15 04:44:36;;;;;;;;;;;;;;;12.02;70.89;100598.44;4073825;29;20317;-66
2023/05/15 04:46:38;;;;;;;;;;;;;;;12.06;71.34;100588.88;4077180;29;20047;-66
2023/05/15 04:48:40;;;;;;;;;;;;;;;12.08;71.06;100589.53;4075608;29;20025;-66
2023/05/15 04:50:42;;;;;;;;;;;;;;;12.12;71.11;100586.47;4076202;29;20021;-66
2023/05/15 04:52:44;;;;;;;;;;;;;;;12.11;71.04;100585.59;4076800;29;20034;-66
2023/05/15 04:54:46;;;;;;;;;;;;;;;12.11;71.03;100579.34;4075512;29;19934;-66
2023/05/15 04:56:48;;;;;;;;;;;;;;;12.12;71.53;100581.88;4075947;29;20038;-67
2023/05/15 04:58:50;;;;;;;;;;;;;;;12.13;71.56;100577.28;4072619;29;20373;-66
2023/05/15 05:00:54;;;;;;;;;;;;;;;12.13;71.65;100580.84;4074824;29;20485;-66
2023/05/15 05:02:56;;;;;;;;;;;;;;;12.18;71.49;100575.69;4074607;29;20013;-64
2023/05/15 05:04:58;;;;;;;;;;;;;;;12.25;71.01;100575.75;4074609;29;20623;-65
2023/05/15 05:07:03;;;;;;;;;;;;;;;12.35;70.58;100576.28;4075504;29;20073;-67
2023/05/15 05:09:05;;;;;;;;;;;;;;;12.44;70.04;100577.84;4090096;29;20022;-64
2023/05/15 05:11:07;;;;;;;;;;;;;;;12.56;69.03;100574.63;4075118;29;20025;-66
2023/05/15 05:13:09;;;;;;;;;;;;;;;12.68;68.60;100575.78;4075160;29;20034;-67
2023/05/15 05:15:11;;;;;;;;;;;;;;;12.76;68.25;100572.09;4073733;29;20446;-67
2023/05/15 05:17:15;;;;;;;;;;;;;;;12.87;67.75;100567.97;4075524;29;20025;-66
2023/05/15 05:19:18;;;;;;;;;;;;;;;12.96;67.31;100567.66;4073195;29;20018;-66
2023/05/15 05:21:20;;;;;;;;;;;;;;;13.05;66.96;100567.50;4076410;29;20021;-67
2023/05/15 05:23:22;;;;;;;;;;;;;;;13.09;66.48;100566.91;4076257;29;20029;-67
2023/05/15 05:25:24;;;;;;;;;;;;;;;13.15;66.05;100560.69;4075482;29;20022;-67
2023/05/15 05:27:26;;;;;;;;;;;;;;;13.24;66.11;100555.94;4076001;29;20470;-67
2023/05/15 05:29:29;;;;;;;;;;;;;;;13.31;65.88;100559.53;4075521;29;20035;-67
2023/05/15 05:31:31;;;;;;;;;;;;;;;13.37;65.69;100549.81;4075099;29;20030;-67
2023/05/15 05:33:34;;;;;;;;;;;;;;;13.44;65.41;100555.28;4073202;29;20205;-67
2023/05/15 05:35:36;;;;;;;;;;;;;;;13.48;65.19;100551.13;4073676;29;20808;-67
2023/05/15 05:37:38;;;;;;;;;;;;;;;13.54;64.35;100546.75;4074441;29;20363;-67
2023/05/15 05:39:40;;;;;;;;;;;;;;;13.59;63.97;100545.13;4074837;29;20528;-67
2023/05/15 05:41:42;;;;;;;;;;;;;;;13.66;64.13;100545.97;4075688;29;20013;-67
2023/05/15 05:43:44;;;;;;;;;;;;;;;13.74;63.77;100542.25;4074982;29;20029;-67
2023/05/15 05:45:49;;;;;;;;;;;;;;;13.84;63.63;100541.84;4075269;29;20971;-67
2023/05/15 05:47:51;;;;;;;;;;;;;;;13.91;63.14;100541.91;4075953;29;20021;-67
2023/05/15 05:49:54;;;;;;;;;;;;;;;13.97;63.26;100547.34;4074649;29;20013;-67
2023/05/15 05:51:56;;;;;;;;;;;;;;;14.03;62.64;100540.28;4076137;29;20021;-67
2023/05/15 05:53:58;;;;;;;;;;;;;;;14.08;62.70;100542.38;4075822;29;20461;-67
2023/05/15 05:56:00;;;;;;;;;;;;;;;14.13;62.68;100539.88;4075665;29;20428;-67
2023/05/15 05:58:02;;;;;;;;;;;;;;;14.17;62.13;100541.97;4075388;29;20031;-67
2023/05/15 06:00:08;;;;;;;;;;;;;;;14.22;62.25;100535.94;4075674;29;20469;-67
2023/05/15 06:02:11;;;;;;;;;;;;;;;14.27;62.29;100535.31;4075075;29;20017;-67
2023/05/15 06:04:14;;;;;;;;;;;;;;;14.31;61.97;100536.56;4075355;29;20030;-67
2023/05/15 06:06:17;;;;;;;;;;;;;;;14.33;62.03;100535.31;4075612;29;20456;-67
2023/05/15 06:08:19;;;;;;;;;;;;;;;14.36;62.20;100528.63;4075432;29;20034;-67
2023/05/15 06:10:21;;;;;;;;;;;;;;;14.40;62.10;100527.16;4075970;29;20457;-67
2023/05/15 06:12:23;;;;;;;;;;;;;;;14.44;61.97;100524.88;4073929;29;19969;-67
2023/05/15 06:14:26;;;;;;;;;;;;;;;14.51;61.77;100528.44;4075147;29;20055;-67
2023/05/15 06:16:28;;;;;;;;;;;;;;;14.57;61.46;100524.88;4059580;29;19928;-67
2023/05/15 06:18:30;;;;;;;;;;;;;;;14.63;61.29;100521.34;4075201;29;20486;-67
2023/05/15 06:20:32;;;;;;;;;;;;;;;14.65;60.86;100519.25;4075885;29;20017;-67
2023/05/15 06:22:35;;;;;;;;;;;;;;;14.67;60.85;100511.75;4075173;29;20022;-67
2023/05/15 06:24:37;;;;;;;;;;;;;;;14.71;61.10;100512.16;4075429;29;20014;-67
2023/05/15 06:26:39;;;;;;;;;;;;;;;14.73;61.34;100508.19;4075061;29;20034;-67
2023/05/15 06:28:41;;;;;;;;;;;;;;;14.77;61.26;100503.16;4074546;29;20433;-67
2023/05/15 06:30:43;;;;;;;;;;;;;;;14.80;60.81;100501.91;4075302;29;20023;-67
2023/05/15 06:32:45;;;;;;;;;;;;;;;14.83;60.46;100496.88;4074565;29;20014;-66
2023/05/15 06:34:47;;;;;;;;;;;;;;;14.87;60.45;100489.97;4075602;29;20027;-67
2023/05/15 06:36:50;;;;;;;;;;;;;;;14.93;60.17;100493.72;4075302;29;20022;-67
2023/05/15 06:38:53;;;;;;;;;;;;;;;14.98;60.00;100495.81;4074692;29;20838;-67
2023/05/15 06:40:55;;;;;;;;;;;;;;;15.01;59.84;100500.81;4074878;29;20038;-66
2023/05/15 06:42:57;;;;;;;;;;;;;;;15.03;59.52;100496.00;4074578;29;20030;-67
2023/05/15 06:45:00;;;;;;;;;;;;;;;15.07;58.78;100503.53;4074077;29;20014;-67
2023/05/15 06:47:02;;;;;;;;;;;;;;;15.11;58.80;100499.34;4074428;29;20034;-67
2023/05/15 06:49:04;;;;;;;;;;;;;;;15.14;58.45;100500.81;4074553;29;20030;-67
2023/05/15 06:51:06;;;;;;;;;;;;;;;15.18;58.45;100499.31;4074641;29;20033;-67
2023/05/15 06:53:08;;;;;;;;;;;;;;;15.22;58.33;100495.13;4074439;29;20066;-67
2023/05/15 06:55:11;;;;;;;;;;;;;;;15.27;58.15;100494.50;4074157;29;20034;-66
2023/05/15 06:57:13;;;;;;;;;;;;;;;15.31;57.97;100488.41;4075029;29;20373;-67
2023/05/15 06:59:15;;;;;;;;;;;;;;;15.36;57.99;100490.50;4074861;29;20009;-67
2023/05/15 07:01:17;;;;;;;;;;;;;;;15.42;57.94;100494.22;4073539;29;20017;-67
2023/05/15 07:03:19;;;;;;;;;;;;;;;15.45;58.06;100482.91;4073938;29;20827;-67
2023/05/15 07:05:21;;;;;;;;;;;;;;;15.50;57.83;100489.38;4074840;29;20010;-67
2023/05/15 07:07:23;;;;;;;;;;;;;;;15.49;57.62;100476.81;4073079;29;20029;-67
2023/05/15 07:09:25;;;;;;;;;;;;;;;15.59;57.88;100486.41;4074158;29;20432;-66
2023/05/15 07:11:29;;;;;;;;;;;;;;;15.63;57.84;100488.47;4074540;29;20053;-67
2023/05/15 07:13:31;;;;;;;;;;;;;;;15.67;57.13;100481.56;4074444;29;20022;-67
2023/05/15 07:15:33;;;;;;;;;;;;;;;15.72;56.33;100480.06;4074611;29;20025;-67
2023/05/15 07:17:35;;;;;;;;;;;;;;;15.76;55.98;100484.03;4074729;29;20451;-67
2023/05/15 07:19:37;;;;;;;;;;;;;;;15.80;56.02;100477.13;4074540;29;20422;-67
2023/05/15 07:21:39;;;;;;;;;;;;;;;15.83;55.76;100480.25;4074254;29;20013;-67
2023/05/15 07:23:41;;;;;;;;;;;;;;;15.85;55.57;100478.13;4074139;29;20022;-67
2023/05/15 07:25:43;;;;;;;;;;;;;;;15.88;55.39;100474.16;4074281;29;20022;-67
2023/05/15 07:27:46;;;;;;;;;;;;;;;15.90;55.07;100466.59;4074077;29;20014;-67
2023/05/15 07:29:48;;;;;;;;;;;;;;;15.93;55.13;100473.50;4073363;29;20062;-67
2023/05/15 07:31:50;;;;;;;;;;;;;;;15.95;55.41;100458.59;4074052;29;20031;-67
2023/05/15 07:33:52;;;;;;;;;;;;;;;15.97;55.07;100461.09;4073977;29;20014;-67
2023/05/15 07:35:54;;;;;;;;;;;;;;;15.99;55.06;100454.38;4075032;29;20021;-67
2023/05/15 07:37:56;;;;;;;;;;;;;;;16.02;54.75;100461.28;4074167;29;20470;-67
2023/05/15 07:39:58;;;;;;;;;;;;;;;16.04;54.84;100456.44;4072795;29;20022;-68
2023/05/15 07:42:00;;;;;;;;;;;;;;;16.06;54.46;100450.78;4073555;29;20512;-67
2023/05/15 07:44:04;;;;;;;;;;;;;;;16.07;54.11;100458.72;4071851;29;20493;-67
2023/05/15 07:46:06;;;;;;;;;;;;;;;16.08;54.14;100452.22;4073840;29;20038;-67
2023/05/15 07:48:15;;;;;;;;;;;;;;;16.11;54.30;100459.13;4073900;29;20063;-67
2023/05/15 07:50:17;;;;;;;;;;;;;;;16.12;54.55;100455.34;4074628;29;20029;-67
2023/05/15 07:52:19;;;;;;;;;;;;;;;16.13;54.27;100457.03;4073892;29;20027;-67
2023/05/15 07:54:21;;;;;;;;;;;;;;;16.14;54.32;100448.59;4073401;29;20038;-67
2023/05/15 07:56:23;;;;;;;;;;;;;;;16.16;53.89;100457.41;4074251;29;20030;-67
2023/05/15 07:58:26;;;;;;;;;;;;;;;16.17;54.16;100453.59;4073884;29;19927;-67
2023/05/15 08:00:30;;;;;;;;;;;;;;;16.19;54.11;100456.97;4074349;29;20018;-67
2023/05/15 08:02:32;;;;;;;;;;;;;;;16.19;54.15;100448.78;4073616;29;20030;-67
2023/05/15 08:04:34;;;;;;;;;;;;;;;16.20;54.24;100445.00;4074298;29;20023;-67
2023/05/15 08:06:37;;;;;;;;;;;;;;;16.20;54.07;100445.00;4073648;29;20029;-67
2023/05/15 08:08:39;;;;;;;;;;;;;;;16.21;54.55;100443.13;4073106;29;20123;-67
2023/05/15 08:10:41;;;;;;;;;;;;;;;16.23;54.23;100437.44;4073827;29;19935;-67
2023/05/15 08:12:45;;;;;;;;;;;;;;;16.23;54.40;100434.72;4073280;29;20026;-67
2023/05/15 08:14:48;;;;;;;;;;;;;;;16.24;54.11;100439.09;4073455;29;20022;-67
2023/05/15 08:16:51;;;;;;;;;;;;;;;16.24;54.11;100426.34;4073825;29;20014;-67
2023/05/15 08:18:57;;;;;;;;;;;;;;;16.25;53.92;100429.88;4074549;29;20062;-67
2023/05/15 08:20:59;;;;;;;;;;;;;;;16.27;54.08;100430.47;4076119;29;20019;-67
2023/05/15 08:23:01;;;;;;;;;;;;;;;16.27;54.09;100419.59;4076323;29;20385;-67
2023/05/15 08:25:05;;;;;;;;;;;;;;;16.30;54.39;100422.72;4076971;29;20035;-67
2023/05/15 08:27:07;;;;;;;;;;;;;;;16.31;54.29;100418.09;4076677;29;20025;-67
2023/05/15 08:29:10;;;;;;;;;;;;;;;16.33;54.30;100413.25;4076299;29;20228;-67
2023/05/15 08:31:12;;;;;;;;;;;;;;;16.36;54.53;100424.56;4076455;29;20021;-67
2023/05/15 08:33:15;;;;;;;;;;;;;;;16.38;54.43;100416.97;4076947;29;20461;-67
2023/05/15 08:35:17;;;;;;;;;;;;;;;16.41;54.22;100415.72;4076450;29;19927;-67
2023/05/15 08:37:19;;;;;;;;;;;;;;;16.42;54.25;100420.09;4076395;29;20034;-67
2023/05/15 08:39:21;;;;;;;;;;;;;;;16.45;54.20;100407.91;4077899;29;19954;-67
2023/05/15 08:41:25;;;;;;;;;;;;;;;16.46;54.10;100412.31;4075517;29;19958;-67
2023/05/15 08:43:27;;;;;;;;;;;;;;;16.48;53.82;100412.91;4075283;29;20392;-67
2023/05/15 08:45:29;;;;;;;;;;;;;;;16.47;53.89;100403.88;4076084;29;20022;-67
2023/05/15 08:47:31;;;;;;;;;;;;;;;16.48;53.74;100408.28;4076451;29;20027;-67
2023/05/15 08:49:40;;;;;;;;;;;;;;;16.49;53.48;100399.06;4075667;29;20030;-68
2023/05/15 08:51:41;;;;;;;;;;;;;;;16.50;53.76;100397.97;4077063;29;20018;-67
2023/05/15 08:53:43;;;;;;;;;;;;;;;16.50;53.49;100400.72;4076506;29;20026;-67
2023/05/15 08:55:45;;;;;;;;;;;;;;;16.50;53.43;100397.16;4076470;29;20025;-67
2023/05/15 08:57:47;;;;;;;;;;;;;;;16.50;53.41;100394.44;4076376;29;20391;-67
2023/05/15 08:59:49;;;;;;;;;;;;;;;16.49;53.36;100393.59;4077022;29;19966;-67
2023/05/15 09:01:51;;;;;;;;;;;;;;;16.50;53.25;100388.97;4075821;29;20055;-67
2023/05/15 09:03:53;;;;;;;;;;;;;;;16.50;53.18;100394.44;4076190;29;20033;-67
2023/05/15 09:05:57;;;;;;;;;;;;;;;16.50;53.26;100397.97;4075988;29;20080;-67
2023/05/15 09:08:00;;;;;;;;;;;;;;;16.50;53.54;100392.53;4076376;29;20019;-67
2023/05/15 09:10:03;;;;;;;;;;;;;;;16.52;53.78;100384.13;4075939;29;20018;-67
2023/05/15 09:12:05;;;;;;;;;;;;;;;16.51;53.65;100386.03;4074363;29;20392;-67
2023/05/15 09:14:08;;;;;;;;;;;;;;;16.52;53.70;100384.97;4074211;29;20026;-67
2023/05/15 09:16:10;;;;;;;;;;;;;;;16.53;53.43;100391.25;4076559;29;20022;-67
2023/05/15 09:18:12;;;;;;;;;;;;;;;16.53;53.89;100385.81;4076275;29;20462;-67
2023/05/15 09:20:25;;;;;;;;;;;;;;;16.53;53.89;100377.63;4075513;29;19927;-67
2023/05/15 09:22:28;;;;;;;;;;;;;;;16.54;53.65;100382.03;4075458;29;20021;-67
2023/05/15 09:24:30;;;;;;;;;;;;;;;16.54;53.16;100377.41;4074277;29;20030;-65
2023/05/15 09:26:32;;;;;;;;;;;;;;;16.55;52.94;100378.22;4076652;29;20058;-65
2023/05/15 09:28:34;;;;;;;;;;;;;;;16.55;53.02;100376.34;4076031;29;20043;-66
2023/05/15 09:30:37;;;;;;;;;;;;;;;16.56;53.32;100366.28;4075088;29;20025;-66
2023/05/15 09:32:39;;;;;;;;;;;;;;;16.56;52.97;100367.09;4075867;29;20021;-65
2023/05/15 09:34:42;;;;;;;;;;;;;;;16.57;53.27;100363.31;4076249;29;20038;-65
2023/05/15 09:36:44;;;;;;;;;;;;;;;16.58;52.47;100366.88;4076483;29;20025;-67
2023/05/15 09:38:48;;;;;;;;;;;;;;;16.59;52.45;100365.81;4074574;29;20017;-66
2023/05/15 09:40:50;;;;;;;;;;;;;;;16.58;52.37;100365.00;4076235;29;19927;-66
2023/05/15 09:42:52;;;;;;;;;;;;;;;16.61;52.74;100371.06;4075686;29;20029;-67
2023/05/15 09:44:54;;;;;;;;;;;;;;;16.61;52.89;100365.59;4075811;29;20013;-67
2023/05/15 09:46:56;;;;;;;;;;;;;;;16.62;53.02;100368.09;4075192;29;20022;-67
2023/05/15 09:48:58;;;;;;;;;;;;;;;16.64;53.35;100365.97;4076166;29;20038;-67
2023/05/15 09:51:01;;;;;;;;;;;;;;;16.65;53.18;100369.56;4076353;29;20010;-67
2023/05/15 09:53:03;;;;;;;;;;;;;;;16.66;53.00;100365.75;4074993;29;20026;-67
2023/05/15 09:55:07;;;;;;;;;;;;;;;16.67;53.20;100367.41;4074652;29;20031;-66
2023/05/15 09:57:10;;;;;;;;;;;;;;;16.67;53.23;100360.06;4075893;29;20034;-67
2023/05/15 09:59:12;;;;;;;;;;;;;;;16.70;53.10;100364.25;4075102;29;20030;-67
2023/05/15 10:01:14;;;;;;;;;;;;;;;16.70;53.07;100358.78;4075297;29;20029;-67
2023/05/15 10:03:17;;;;;;;;;;;;;;;16.70;52.72;100373.25;4074628;29;20017;-66
2023/05/15 10:05:19;;;;;;;;;;;;;;;16.70;52.70;100364.25;4076289;29;20026;-67
2023/05/15 10:07:26;;;;;;;;;;;;;;;16.71;52.33;100368.66;4076101;29;20014;-67
2023/05/15 10:09:29;;;;;;;;;;;;;;;16.71;52.46;100364.00;4076044;29;19927;-66
2023/05/15 10:11:33;;;;;;;;;;;;;;;16.71;52.25;100366.75;4075493;29;20022;-67
2023/05/15 10:13:36;;;;;;;;;;;;;;;16.71;52.44;100366.75;4075023;29;20021;-66
2023/05/15 10:15:38;;;;;;;;;;;;;;;16.72;52.44;100365.69;4074987;29;20021;-67
2023/05/15 10:17:40;;;;;;;;;;;;;;;16.74;52.24;100357.28;4074648;29;20018;-66
2023/05/15 10:19:42;;;;;;;;;;;;;;;16.74;52.08;100357.28;4075257;29;20025;-66
2023/05/15 10:21:44;;;;;;;;;;;;;;;16.75;52.47;100361.66;4075454;29;20030;-66
2023/05/15 10:23:46;;;;;;;;;;;;;;;16.76;52.44;100355.16;4075644;29;20022;-66
2023/05/15 10:25:50;;;;;;;;;;;;;;;16.78;52.34;100358.47;4075383;29;20378;-66
2023/05/15 10:27:54;;;;;;;;;;;;;;;16.81;52.05;100357.19;4075463;29;20014;-66
2023/05/15 10:29:56;;;;;;;;;;;;;;;16.84;52.19;100354.03;4075108;29;20349;-67